createdAt,value
2018-07-14T00:01:20.432Z,19.60
2018-07-14T00:06:24.912Z,19.40
2018-07-14T00:11:29.134Z,19.50
2018-07-14T00:16:33.284Z,19.40
2018-07-14T00:21:37.897Z,19.20
2018-07-14T00:26:42.754Z,19.30
2018-07-14T00:36:51.461Z,19.00
2018-07-14T00:41:56.180Z,19.00
2018-07-14T00:47:01.356Z,19.00
2018-07-14T00:52:05.519Z,18.80
2018-07-14T00:57:11.026Z,18.80
2018-07-14T01:02:15.569Z,18.80
2018-07-14T01:07:20.362Z,18.60
2018-07-14T01:12:26.231Z,18.60
2018-07-14T01:17:31.647Z,18.60
2018-07-14T01:22:37.757Z,18.50
2018-07-14T01:27:43.227Z,18.40
2018-07-14T01:32:48.683Z,18.30
2018-07-14T01:37:53.243Z,18.30
2018-07-14T01:42:58.078Z,18.10
2018-07-14T01:48:02.562Z,18.10
2018-07-14T01:53:07.610Z,18.00
2018-07-14T01:58:12.266Z,17.90
2018-07-14T02:03:18.075Z,17.90
2018-07-14T02:08:23.948Z,17.90
2018-07-14T02:13:28.084Z,17.80
2018-07-14T02:18:32.448Z,17.80
2018-07-14T02:23:43.746Z,17.80
2018-07-14T02:28:49.298Z,17.60
2018-07-14T02:33:53.431Z,17.60
2018-07-14T02:38:57.956Z,17.50
2018-07-14T02:44:03.093Z,17.30
2018-07-14T02:49:07.855Z,17.40
2018-07-14T02:54:13.654Z,17.30
2018-07-14T02:59:18.032Z,17.30
2018-07-14T03:04:22.768Z,17.40
2018-07-14T03:09:27.780Z,17.30
2018-07-14T03:14:32.165Z,17.30
2018-07-14T03:19:36.855Z,17.30
2018-07-14T03:24:41.283Z,17.00
2018-07-14T03:29:46.024Z,16.90
2018-07-14T03:34:51.021Z,17.00
2018-07-14T03:39:55.342Z,16.90
2018-07-14T03:44:59.793Z,16.90
2018-07-14T03:50:04.152Z,16.80
2018-07-14T03:55:08.717Z,16.80
2018-07-14T04:00:12.812Z,16.60
2018-07-14T04:05:17.248Z,16.80
2018-07-14T04:10:21.844Z,16.70
2018-07-14T04:15:26.459Z,16.80
2018-07-14T04:20:31.369Z,16.80
2018-07-14T04:25:35.418Z,16.60
2018-07-14T04:30:40.008Z,16.70
2018-07-14T04:35:43.668Z,16.70
2018-07-14T04:40:47.905Z,16.60
2018-07-14T04:45:51.883Z,16.70
2018-07-14T04:50:56.735Z,16.70
2018-07-14T04:56:01.327Z,16.70
2018-07-14T05:01:05.689Z,16.80
2018-07-14T05:06:10.361Z,16.90
2018-07-14T05:11:15.107Z,16.90
2018-07-14T05:16:19.690Z,16.90
2018-07-14T05:21:24.340Z,17.00
2018-07-14T05:26:30.220Z,17.10
2018-07-14T05:31:36.671Z,17.20
2018-07-14T05:36:40.877Z,17.30
2018-07-14T05:41:44.953Z,17.40
2018-07-14T05:46:48.979Z,17.60
2018-07-14T05:51:53.524Z,17.40
2018-07-14T05:56:57.819Z,17.50
2018-07-14T06:02:01.815Z,17.70
2018-07-14T06:12:09.393Z,18.10
2018-07-14T06:17:13.273Z,17.90
2018-07-14T06:22:17.891Z,18.00
2018-07-14T06:27:21.933Z,18.00
2018-07-14T06:32:25.954Z,18.20
2018-07-14T06:37:30.368Z,18.30
2018-07-14T06:42:35.144Z,18.40
2018-07-14T06:47:39.507Z,18.40
2018-07-14T06:52:43.908Z,18.40
2018-07-14T06:57:48.497Z,18.40
2018-07-14T07:02:52.991Z,18.60
2018-07-14T07:07:57.496Z,18.80
2018-07-14T07:13:01.831Z,18.90
2018-07-14T07:18:06.378Z,19.00
2018-07-14T07:23:10.869Z,19.10
2018-07-14T07:28:15.561Z,19.40
2018-07-14T07:33:20.067Z,19.40
2018-07-14T07:38:24.871Z,19.60
2018-07-14T07:43:29.623Z,19.60
2018-07-14T07:48:34.482Z,19.90
2018-07-14T07:53:40.899Z,20.10
2018-07-14T07:58:45.446Z,20.40
2018-07-14T08:03:50.013Z,20.50
2018-07-14T08:08:54.627Z,20.50
2018-07-14T08:13:59.419Z,20.70
2018-07-14T08:19:04.555Z,20.80
2018-07-14T08:24:09.131Z,20.90
2018-07-14T08:29:14.070Z,20.80
2018-07-14T08:34:18.501Z,20.90
2018-07-14T08:39:22.978Z,21.30
2018-07-14T08:44:27.887Z,21.30
2018-07-14T08:49:32.422Z,21.50
2018-07-14T08:54:37.104Z,21.60
2018-07-14T08:59:42.641Z,21.70
2018-07-14T09:04:46.657Z,21.80
2018-07-14T09:09:51.715Z,22.10
2018-07-14T09:14:57.170Z,22.20
2018-07-14T09:20:01.633Z,22.40
2018-07-14T09:25:06.970Z,22.30
2018-07-14T09:30:11.319Z,21.90
2018-07-14T09:35:16.156Z,22.20
2018-07-14T09:40:20.540Z,22.50
2018-07-14T09:45:24.833Z,22.50
2018-07-14T09:50:30.300Z,22.40
2018-07-14T09:55:34.960Z,22.70
2018-07-14T10:00:43.729Z,22.80
2018-07-14T10:05:48.219Z,23.00
2018-07-14T10:10:52.425Z,23.20
2018-07-14T10:15:56.804Z,23.10
2018-07-14T10:21:02.148Z,23.10
2018-07-14T10:26:06.175Z,23.10
2018-07-14T10:31:10.410Z,23.50
2018-07-14T10:36:14.072Z,23.30
2018-07-14T10:41:17.838Z,23.70
2018-07-14T10:46:21.977Z,23.70
2018-07-14T10:51:26.115Z,24.00
2018-07-14T10:56:30.330Z,23.90
2018-07-14T11:01:34.984Z,24.00
2018-07-14T11:06:39.303Z,24.00
2018-07-14T11:11:43.551Z,24.30
2018-07-14T11:16:47.734Z,24.60
2018-07-14T11:21:52.036Z,24.40
2018-07-14T11:26:56.868Z,24.60
2018-07-14T11:32:01.738Z,24.80
2018-07-14T11:37:06.435Z,24.70
2018-07-14T11:42:10.825Z,24.80
2018-07-14T11:47:16.258Z,24.90
2018-07-14T11:52:20.970Z,24.60
2018-07-14T11:57:26.371Z,25.20
2018-07-14T12:02:30.255Z,25.50
2018-07-14T12:07:34.390Z,25.40
2018-07-14T12:12:38.866Z,25.30
2018-07-14T12:17:43.467Z,25.10
2018-07-14T12:22:48.027Z,25.50
2018-07-14T12:27:55.857Z,25.70
2018-07-14T12:33:00.011Z,25.70
2018-07-14T12:38:04.860Z,25.10
2018-07-14T12:43:08.150Z,25.50
2018-07-14T12:48:11.281Z,25.90
2018-07-14T12:53:14.417Z,26.00
2018-07-14T12:58:17.639Z,26.10
2018-07-14T13:03:20.785Z,26.10
2018-07-14T13:08:23.934Z,26.50
2018-07-14T13:13:27.071Z,26.70
2018-07-14T13:18:30.222Z,27.00
2018-07-14T13:23:33.798Z,27.00
2018-07-14T13:28:36.944Z,26.60
2018-07-14T13:33:40.085Z,26.80
2018-07-14T13:38:51.264Z,26.70
2018-07-14T13:43:46.677Z,27.10
2018-07-14T13:48:49.830Z,27.00
2018-07-14T13:53:52.937Z,27.00
2018-07-14T13:58:56.082Z,27.00
2018-07-14T14:03:59.212Z,26.80
2018-07-14T14:09:02.330Z,26.90
2018-07-14T14:14:06.009Z,26.10
2018-07-14T14:19:09.397Z,25.90
2018-07-14T14:24:12.840Z,25.80
2018-07-14T14:29:15.974Z,26.10
2018-07-14T14:34:19.125Z,26.40
2018-07-14T14:39:22.286Z,26.20
2018-07-14T14:44:25.446Z,26.20
2018-07-14T14:49:28.687Z,26.20
2018-07-14T14:54:31.890Z,26.40
2018-07-14T14:59:35.083Z,26.40
2018-07-14T15:04:38.217Z,26.40
2018-07-14T15:09:43.387Z,26.70
2018-07-14T15:14:46.596Z,26.80
2018-07-14T15:19:49.834Z,26.90
2018-07-14T15:24:53.062Z,26.70
2018-07-14T15:29:56.693Z,26.20
2018-07-14T15:34:59.851Z,26.20
2018-07-14T15:40:02.994Z,26.40
2018-07-14T15:45:06.175Z,26.60
2018-07-14T15:50:09.290Z,26.70
2018-07-14T15:55:12.396Z,26.60
2018-07-14T16:00:15.542Z,26.20
2018-07-14T16:05:18.666Z,26.20
2018-07-14T16:10:21.909Z,26.10
2018-07-14T16:15:25.622Z,26.10
2018-07-14T16:20:28.809Z,26.10
2018-07-14T16:25:31.945Z,26.10
2018-07-14T16:30:35.077Z,26.10
2018-07-14T16:35:38.241Z,26.40
2018-07-14T16:40:41.518Z,26.30
2018-07-14T16:45:44.758Z,26.10
2018-07-14T16:50:48.007Z,26.10
2018-07-14T16:55:51.227Z,26.00
2018-07-14T17:00:54.486Z,25.90
2018-07-14T17:05:57.595Z,25.90
2018-07-14T17:11:00.725Z,25.80
2018-07-14T17:16:03.860Z,25.80
2018-07-14T17:21:07.415Z,25.80
2018-07-14T17:26:13.033Z,25.70
2018-07-14T17:31:17.326Z,25.60
2018-07-14T17:36:20.755Z,25.60
2018-07-14T17:41:24.575Z,25.60
2018-07-14T17:46:27.762Z,25.60
2018-07-14T17:51:31.337Z,25.60
2018-07-14T17:56:34.429Z,25.60
2018-07-14T18:01:37.752Z,25.50
2018-07-14T18:06:40.956Z,25.40
2018-07-14T18:11:44.142Z,25.40
2018-07-14T18:16:47.323Z,25.30
2018-07-14T18:21:50.453Z,25.20
2018-07-14T18:26:53.582Z,25.20
2018-07-14T18:31:57.798Z,25.20
2018-07-14T18:37:00.975Z,25.00
2018-07-14T18:42:04.127Z,25.00
2018-07-14T18:47:07.533Z,24.90
2018-07-14T18:52:10.978Z,24.80
2018-07-14T18:57:14.116Z,24.70
2018-07-14T19:02:17.274Z,24.50
2018-07-14T19:07:20.420Z,24.30
2018-07-14T19:12:23.615Z,24.30
2018-07-14T19:17:26.781Z,24.10
2018-07-14T19:22:30.111Z,24.10
2018-07-14T19:27:33.271Z,23.90
2018-07-14T19:32:36.425Z,23.70
2018-07-14T19:37:39.545Z,23.50
2018-07-14T19:42:42.753Z,23.30
2018-07-14T19:47:45.978Z,23.00
2018-07-14T19:52:49.102Z,22.80
2018-07-14T19:57:52.281Z,22.60
2018-07-14T20:02:55.446Z,22.60
2018-07-14T20:07:58.667Z,22.60
2018-07-14T20:13:01.806Z,22.40
2018-07-14T20:18:05.684Z,22.30
2018-07-14T20:23:09.362Z,22.10
2018-07-14T20:28:12.489Z,22.00
2018-07-14T20:33:15.622Z,21.90
2018-07-14T20:38:18.774Z,21.70
2018-07-14T20:43:21.890Z,21.80
2018-07-14T20:48:25.057Z,21.60
2018-07-14T20:53:28.188Z,21.50
2018-07-14T20:58:31.440Z,21.30
2018-07-14T21:03:34.570Z,21.30
2018-07-14T21:08:37.738Z,21.00
2018-07-14T21:13:40.874Z,20.90
2018-07-14T21:18:44.119Z,20.80
2018-07-14T21:23:47.250Z,20.60
2018-07-14T21:28:50.502Z,20.60
2018-07-14T21:33:53.666Z,20.60
2018-07-14T21:38:56.774Z,20.50
2018-07-14T21:43:59.906Z,20.50
2018-07-14T21:49:03.054Z,20.60
2018-07-14T21:54:06.198Z,20.40
2018-07-14T21:59:09.385Z,20.30
2018-07-14T22:04:12.469Z,20.20
2018-07-14T22:09:15.609Z,20.10
2018-07-14T22:14:18.844Z,20.10
2018-07-14T22:19:21.979Z,20.10
2018-07-14T22:24:25.114Z,19.90
2018-07-14T22:29:28.284Z,19.80
2018-07-14T22:34:31.470Z,19.80
2018-07-14T22:39:34.604Z,19.70
2018-07-14T22:44:37.722Z,19.60
2018-07-14T22:49:40.910Z,19.40
2018-07-14T22:54:44.095Z,19.60
2018-07-14T22:59:47.318Z,19.60
2018-07-14T23:04:50.461Z,19.60
2018-07-14T23:09:53.636Z,19.50
2018-07-14T23:14:56.783Z,19.50
2018-07-14T23:19:59.922Z,19.30
2018-07-14T23:25:03.196Z,19.10
2018-07-14T23:30:06.701Z,19.20
2018-07-14T23:35:09.838Z,19.10
2018-07-14T23:40:13.002Z,19.00
2018-07-14T23:45:16.182Z,19.00
2018-07-14T23:50:19.300Z,18.90
2018-07-14T23:55:22.493Z,19.00
